Time;durP1;ratioP1;P1;durP2;ratioP2;P2;SDS_P1;SDS_P2;PMS_P1;PMS_P2;Temp;Humidity;BMP_temperature;BMP_pressure;BME280_temperature;BME280_humidity;BME280_pressure;Samples;Min_cycle;Max_cycle;Signal;HPM_P1;HPM_P2
2023/08/19 00:01:41;;;;;;;7.30;5.97;;;26.20;89.10;;;;;;4959313;28;20049;-26
2023/08/19 00:04:06;;;;;;;7.40;6.00;;;26.20;89.20;;;;;;4968767;28;20857;-25
2023/08/19 00:06:40;;;;;;;8.15;6.07;;;26.10;89.30;;;;;;4977770;28;20557;-27
2023/08/19 00:09:08;;;;;;;7.30;6.00;;;26.20;90.10;;;;;;4961748;28;20061;-25
2023/08/19 00:11:36;;;;;;;8.30;5.93;;;26.20;89.70;;;;;;4950994;28;20042;-31
2023/08/19 00:14:03;;;;;;;8.43;6.30;;;26.20;89.80;;;;;;4969288;28;20096;-29
2023/08/19 00:16:30;;;;;;;7.43;5.97;;;26.20;89.70;;;;;;4966793;28;20263;-26
2023/08/19 00:18:56;;;;;;;7.88;5.70;;;26.10;89.80;;;;;;4960567;28;20413;-24
2023/08/19 00:21:21;;;;;;;8.07;6.03;;;26.10;89.80;;;;;;4968513;28;20030;-27
2023/08/19 00:23:47;;;;;;;7.95;6.03;;;26.10;89.90;;;;;;4964503;28;20030;-27
2023/08/19 00:26:13;;;;;;;9.43;5.75;;;26.10;90.00;;;;;;4946916;28;20712;-28
2023/08/19 00:28:39;;;;;;;7.40;5.90;;;26.10;90.00;;;;;;4975143;28;20026;-28
2023/08/19 00:31:07;;;;;;;7.50;5.80;;;26.10;90.10;;;;;;4946796;28;20542;-28
2023/08/19 00:33:34;;;;;;;7.80;5.70;;;26.10;90.10;;;;;;4964899;28;20026;-20
2023/08/19 00:36:00;;;;;;;8.13;5.93;;;26.10;90.10;;;;;;4985893;28;20039;-22
2023/08/19 00:38:25;;;;;;;6.70;5.50;;;26.10;90.10;;;;;;4981922;28;20038;-24
2023/08/19 00:40:51;;;;;;;8.02;5.63;;;26.10;90.10;;;;;;4955912;28;20420;-22
2023/08/19 00:43:17;;;;;;;7.50;4.97;;;26.10;90.20;;;;;;4984673;28;20105;-21
2023/08/19 00:45:48;;;;;;;7.78;5.90;;;26.10;90.20;;;;;;4990202;28;20112;-22
2023/08/19 00:48:15;;;;;;;9.13;5.70;;;26.10;90.50;;;;;;4968161;28;21250;-20
2023/08/19 00:50:43;;;;;;;6.73;5.50;;;26.10;90.40;;;;;;4985091;28;20464;-20
2023/08/19 00:53:10;;;;;;;8.02;5.53;;;26.10;90.50;;;;;;4958968;28;20023;-25
2023/08/19 00:55:36;;;;;;;6.65;5.60;;;26.10;90.40;;;;;;4974431;28;20027;-31
2023/08/19 00:58:07;;;;;;;6.43;5.13;;;26.10;90.40;;;;;;4953645;28;20665;-28
2023/08/19 01:00:34;;;;;;;7.18;5.55;;;26.10;90.40;;;;;;4975999;28;20030;-26
2023/08/19 01:03:00;;;;;;;6.07;4.97;;;26.10;90.40;;;;;;4969595;28;20109;-25
2023/08/19 01:05:47;;;;;;;6.28;5.25;;;26.00;90.50;;;;;;4957539;28;20053;-24
2023/08/19 01:08:21;;;;;;;6.65;5.00;;;26.00;91.00;;;;;;4970771;28;20034;-28
2023/08/19 01:11:25;;;;;;;6.10;5.05;;;26.00;90.70;;;;;;4960083;28;20412;-27
2023/08/19 01:14:07;;;;;;;7.47;4.97;;;26.00;91.10;;;;;;4957640;28;20496;-32
2023/08/19 01:16:35;;;;;;;5.83;4.93;;;26.00;90.90;;;;;;4965374;28;20458;-24
2023/08/19 01:19:01;;;;;;;6.15;5.20;;;26.00;90.60;;;;;;4950310;28;20239;-27
2023/08/19 01:21:28;;;;;;;6.75;4.68;;;26.00;90.60;;;;;;4944658;28;20035;-25
2023/08/19 01:23:59;;;;;;;6.15;4.75;;;26.00;90.70;;;;;;4975270;28;20038;-31
2023/08/19 01:26:25;;;;;;;5.97;4.78;;;26.00;90.90;;;;;;4977749;28;20061;-26
2023/08/19 01:28:51;;;;;;;6.13;4.77;;;26.00;90.70;;;;;;4971006;28;20047;-27
2023/08/19 01:31:16;;;;;;;5.57;4.43;;;26.00;90.70;;;;;;4974915;28;20744;-27
2023/08/19 01:33:42;;;;;;;7.43;4.90;;;26.00;90.70;;;;;;4978623;28;20144;-28
2023/08/19 01:36:30;;;;;;;5.85;4.25;;;26.00;90.80;;;;;;4947885;28;20121;-29
2023/08/19 01:39:03;;;;;;;6.43;4.47;;;26.00;91.30;;;;;;4970210;28;20476;-29
2023/08/19 01:41:31;;;;;;;7.97;4.85;;;25.90;91.00;;;;;;4953211;28;20404;-24
2023/08/19 01:43:58;;;;;;;6.40;4.57;;;26.00;90.90;;;;;;4964409;28;20030;-30
2023/08/19 01:46:24;;;;;;;5.57;4.57;;;25.90;90.80;;;;;;4970157;28;20034;-25
2023/08/19 01:48:50;;;;;;;5.90;4.53;;;25.90;90.80;;;;;;4961821;28;20311;-32
2023/08/19 01:51:16;;;;;;;5.55;4.60;;;25.90;90.80;;;;;;4978643;28;20392;-26
2023/08/19 01:53:42;;;;;;;5.63;4.57;;;25.90;90.80;;;;;;4963656;28;20034;-26
2023/08/19 01:56:07;;;;;;;5.10;4.30;;;25.90;90.90;;;;;;4958866;28;20026;-29
2023/08/19 01:58:33;;;;;;;6.60;4.60;;;25.90;90.90;;;;;;4962768;28;20043;-25
2023/08/19 02:00:59;;;;;;;6.07;4.23;;;25.90;90.90;;;;;;4967300;28;20378;-26
2023/08/19 02:03:25;;;;;;;6.05;4.22;;;25.90;90.90;;;;;;4968951;28;20412;-27
2023/08/19 02:05:51;;;;;;;5.80;4.07;;;25.90;91.00;;;;;;4958155;28;20212;-27
2023/08/19 02:08:17;;;;;;;6.13;4.20;;;25.80;91.00;;;;;;4986044;28;20390;-28
2023/08/19 02:10:43;;;;;;;5.82;4.13;;;25.80;91.00;;;;;;4965902;28;20038;-27
2023/08/19 02:13:08;;;;;;;5.10;4.03;;;25.80;91.00;;;;;;4964003;28;20027;-27
2023/08/19 02:15:34;;;;;;;5.55;4.30;;;25.80;91.10;;;;;;4919589;28;20027;-25
2023/08/19 02:18:00;;;;;;;5.33;4.20;;;25.80;91.10;;;;;;4969559;28;20333;-28
2023/08/19 02:20:26;;;;;;;5.50;4.28;;;25.80;91.10;;;;;;4965242;28;20046;-24
2023/08/19 02:22:53;;;;;;;5.78;4.18;;;25.80;91.10;;;;;;4960483;28;20054;-26
2023/08/19 02:25:19;;;;;;;5.00;3.83;;;25.80;91.20;;;;;;4970385;28;20031;-25
2023/08/19 02:27:45;;;;;;;4.88;4.07;;;25.80;91.10;;;;;;4957688;28;20037;-26
2023/08/19 02:30:11;;;;;;;5.30;4.20;;;25.80;91.20;;;;;;4953354;28;20117;-26
2023/08/19 02:32:39;;;;;;;5.22;4.07;;;25.80;91.20;;;;;;4966955;28;20105;-25
2023/08/19 02:35:05;;;;;;;5.40;3.90;;;25.80;91.30;;;;;;4964511;28;20042;-25
2023/08/19 02:37:30;;;;;;;5.47;3.92;;;25.80;91.20;;;;;;4960867;28;20519;-25
2023/08/19 02:39:56;;;;;;;5.43;4.30;;;25.80;91.20;;;;;;4971753;28;20224;-26
2023/08/19 02:42:22;;;;;;;5.22;4.07;;;25.70;91.20;;;;;;4960596;28;20065;-24
2023/08/19 02:44:48;;;;;;;5.63;4.00;;;25.70;91.20;;;;;;4944480;28;20058;-31
2023/08/19 02:47:14;;;;;;;4.60;3.67;;;25.70;91.20;;;;;;4965560;28;20057;-30
2023/08/19 02:49:40;;;;;;;6.35;3.85;;;25.70;91.30;;;;;;4958488;28;20730;-26
2023/08/19 02:52:06;;;;;;;5.33;3.70;;;25.70;91.30;;;;;;4934133;28;20128;-26
2023/08/19 02:54:32;;;;;;;5.57;3.90;;;25.70;91.30;;;;;;4972962;28;20289;-24
2023/08/19 02:56:57;;;;;;;5.25;3.83;;;25.70;91.30;;;;;;4961231;28;20031;-22
2023/08/19 02:59:23;;;;;;;5.17;3.50;;;25.70;91.30;;;;;;4985933;28;20411;-23
2023/08/19 03:01:49;;;;;;;5.40;3.87;;;25.70;91.30;;;;;;4947491;28;20318;-22
2023/08/19 03:04:15;;;;;;;5.15;3.80;;;25.70;91.40;;;;;;4967560;28;20136;-26
2023/08/19 03:06:43;;;;;;;4.67;3.60;;;25.70;91.40;;;;;;4951672;28;20369;-27
2023/08/19 03:09:09;;;;;;;4.80;3.75;;;25.70;91.40;;;;;;4963500;28;20499;-27
2023/08/19 03:11:35;;;;;;;5.20;3.57;;;25.70;91.40;;;;;;4973750;28;20037;-24
2023/08/19 03:14:02;;;;;;;5.63;3.43;;;25.70;91.40;;;;;;4959648;28;20333;-28
2023/08/19 03:16:27;;;;;;;5.78;3.60;;;25.70;91.40;;;;;;4958122;28;20041;-26
2023/08/19 03:18:53;;;;;;;4.40;3.63;;;25.70;91.80;;;;;;4957613;28;20030;-29
2023/08/19 03:21:19;;;;;;;4.33;3.50;;;25.70;91.40;;;;;;4966214;28;20038;-24
2023/08/19 03:23:45;;;;;;;5.05;3.78;;;25.70;91.50;;;;;;4957794;28;20194;-29
2023/08/19 03:26:11;;;;;;;5.80;3.55;;;25.70;91.40;;;;;;4959664;28;20137;-25
2023/08/19 03:28:37;;;;;;;5.28;3.38;;;25.70;91.40;;;;;;4952258;28;20034;-24
2023/08/19 03:31:10;;;;;;;4.40;3.57;;;25.70;91.50;;;;;;4972354;28;20035;-30
2023/08/19 03:33:38;;;;;;;4.82;3.30;;;25.70;91.70;;;;;;4945775;28;20373;-24
2023/08/19 03:36:04;;;;;;;5.93;3.33;;;25.70;91.60;;;;;;4972642;28;20372;-30
2023/08/19 03:38:30;;;;;;;4.60;3.37;;;25.70;91.50;;;;;;4954401;28;20543;-26
2023/08/19 03:40:56;;;;;;;4.22;3.30;;;25.70;91.50;;;;;;4982069;28;20247;-28
2023/08/19 03:43:21;;;;;;;6.23;3.30;;;25.70;91.50;;;;;;4968056;28;20038;-25
2023/08/19 03:45:47;;;;;;;4.67;3.07;;;25.70;91.50;;;;;;4960042;28;20407;-28
2023/08/19 03:48:13;;;;;;;5.28;3.70;;;25.70;91.50;;;;;;4945560;28;20039;-27
2023/08/19 03:50:39;;;;;;;4.27;3.23;;;25.70;91.50;;;;;;4966943;28;20491;-26
2023/08/19 03:53:05;;;;;;;4.45;3.50;;;25.70;91.50;;;;;;4967566;28;20130;-31
2023/08/19 03:55:31;;;;;;;4.80;3.30;;;25.70;91.60;;;;;;4960242;28;20680;-23
2023/08/19 03:57:57;;;;;;;4.45;3.42;;;25.70;91.60;;;;;;4984811;28;20248;-23
2023/08/19 04:00:23;;;;;;;4.50;3.57;;;25.60;91.60;;;;;;4959755;28;20046;-22
2023/08/19 04:02:49;;;;;;;4.78;3.28;;;25.70;91.60;;;;;;4944089;28;20054;-20
2023/08/19 04:05:15;;;;;;;4.65;3.70;;;25.60;91.60;;;;;;4971035;28;20101;-19
2023/08/19 04:07:40;;;;;;;4.80;3.70;;;25.60;91.60;;;;;;4975861;28;20393;-20
2023/08/19 04:10:07;;;;;;;4.07;2.97;;;25.60;91.60;;;;;;4960404;28;20122;-23
2023/08/19 04:12:34;;;;;;;6.47;3.55;;;25.60;91.60;;;;;;4967539;28;20026;-22
2023/08/19 04:14:59;;;;;;;5.35;3.17;;;25.60;91.60;;;;;;4970582;28;20055;-21
2023/08/19 04:17:25;;;;;;;3.50;3.13;;;25.50;91.60;;;;;;4936607;28;20098;-22
2023/08/19 04:19:51;;;;;;;4.63;3.30;;;25.50;92.00;;;;;;4967833;28;20132;-19
2023/08/19 04:22:17;;;;;;;4.90;3.33;;;25.50;91.70;;;;;;4971487;28;20038;-22
2023/08/19 04:24:50;;;;;;;5.23;3.50;;;25.50;91.70;;;;;;4959869;28;20090;-23
2023/08/19 04:27:16;;;;;;;4.18;3.22;;;25.50;92.00;;;;;;4972024;28;20460;-20
2023/08/19 04:29:42;;;;;;;4.70;3.30;;;25.50;91.70;;;;;;4969494;28;20034;-20
2023/08/19 04:32:08;;;;;;;4.65;3.33;;;25.40;91.70;;;;;;4964294;28;20026;-20
2023/08/19 04:34:34;;;;;;;4.57;3.00;;;25.40;91.80;;;;;;4946637;28;20472;-22
2023/08/19 04:36:59;;;;;;;5.03;3.20;;;25.40;91.80;;;;;;4957948;28;20078;-22
2023/08/19 04:39:26;;;;;;;4.40;3.20;;;25.40;91.90;;;;;;4972381;28;20037;-22
2023/08/19 04:41:53;;;;;;;4.13;3.10;;;25.40;91.90;;;;;;4967888;28;20114;-20
2023/08/19 04:44:19;;;;;;;4.25;3.05;;;25.40;91.90;;;;;;4970510;28;20093;-21
2023/08/19 04:46:45;;;;;;;4.13;3.15;;;25.30;92.00;;;;;;4973944;28;20655;-20
2023/08/19 04:49:11;;;;;;;3.90;3.00;;;25.30;92.00;;;;;;4952958;28;20037;-20
2023/08/19 04:51:37;;;;;;;4.07;3.28;;;25.30;91.90;;;;;;4969513;28;20023;-23
2023/08/19 04:54:03;;;;;;;4.40;3.08;;;25.30;92.00;;;;;;4974545;28;20330;-22
2023/08/19 04:56:29;;;;;;;4.60;3.47;;;25.30;92.00;;;;;;4964156;28;20038;-23
2023/08/19 04:58:55;;;;;;;3.90;3.20;;;25.30;92.10;;;;;;4972798;28;20401;-20
2023/08/19 05:01:22;;;;;;;4.28;3.28;;;25.30;92.10;;;;;;4971707;28;20034;-22
2023/08/19 05:03:48;;;;;;;3.70;2.95;;;25.30;92.20;;;;;;4948680;28;20034;-20
2023/08/19 05:06:14;;;;;;;4.67;3.20;;;25.30;92.20;;;;;;4948262;28;20748;-23
2023/08/19 05:08:39;;;;;;;4.00;3.15;;;25.30;92.30;;;;;;4956210;28;20518;-20
2023/08/19 05:11:05;;;;;;;4.40;3.40;;;25.30;92.30;;;;;;4962949;28;20046;-20
2023/08/19 05:13:31;;;;;;;3.95;3.17;;;25.30;92.60;;;;;;4977858;28;20054;-20
2023/08/19 05:15:59;;;;;;;4.23;3.50;;;25.30;92.30;;;;;;4975703;28;20041;-19
2023/08/19 05:18:25;;;;;;;3.92;2.97;;;25.30;92.50;;;;;;4957386;28;20452;-22
2023/08/19 05:20:51;;;;;;;3.85;2.95;;;25.30;92.40;;;;;;4950403;28;20224;-26
2023/08/19 05:23:16;;;;;;;3.67;3.10;;;25.30;92.40;;;;;;4969051;28;20060;-24
2023/08/19 05:25:43;;;;;;;4.13;3.17;;;25.30;92.40;;;;;;4960513;28;20034;-27
2023/08/19 05:28:10;;;;;;;4.68;3.30;;;25.30;92.40;;;;;;4966141;28;20034;-26
2023/08/19 05:30:35;;;;;;;4.13;2.90;;;25.30;92.50;;;;;;4970510;28;20297;-27
2023/08/19 05:33:01;;;;;;;4.22;3.00;;;25.40;92.50;;;;;;4974661;28;20121;-28
2023/08/19 05:35:27;;;;;;;4.90;3.00;;;25.30;92.50;;;;;;4942145;28;20062;-23
2023/08/19 05:37:53;;;;;;;5.03;2.90;;;25.40;92.60;;;;;;4970854;28;20603;-27
2023/08/19 05:40:19;;;;;;;4.25;3.08;;;25.40;92.60;;;;;;4958298;28;20424;-25
2023/08/19 05:42:44;;;;;;;5.80;3.20;;;25.40;92.60;;;;;;4952586;28;20314;-33
2023/08/19 05:45:10;;;;;;;4.35;3.17;;;25.40;92.70;;;;;;4973497;28;20917;-28
2023/08/19 05:47:37;;;;;;;3.38;2.78;;;25.60;92.70;;;;;;4967235;28;20044;-26
2023/08/19 05:50:04;;;;;;;4.53;3.10;;;25.50;92.80;;;;;;4962798;28;20392;-29
2023/08/19 05:52:29;;;;;;;3.70;2.90;;;25.50;92.80;;;;;;4944794;28;20027;-25
2023/08/19 05:54:55;;;;;;;3.92;2.97;;;25.50;92.80;;;;;;4960317;28;20505;-26
2023/08/19 05:57:21;;;;;;;3.73;2.90;;;25.60;92.90;;;;;;4958880;28;20726;-26
2023/08/19 05:59:47;;;;;;;4.82;3.20;;;25.60;92.90;;;;;;4978092;28;20214;-27
2023/08/19 06:02:12;;;;;;;3.93;2.90;;;25.70;93.00;;;;;;4964477;28;20050;-25
2023/08/19 06:04:38;;;;;;;4.80;3.10;;;25.70;93.00;;;;;;4956413;28;20145;-32
2023/08/19 06:07:04;;;;;;;3.60;2.67;;;25.80;93.00;;;;;;4972275;28;20041;-30
2023/08/19 06:09:30;;;;;;;3.42;2.97;;;25.90;93.00;;;;;;4959208;28;20658;-26
2023/08/19 06:11:56;;;;;;;3.72;2.88;;;26.00;93.00;;;;;;4955695;28;20088;-27
2023/08/19 06:14:22;;;;;;;4.47;2.93;;;26.00;93.00;;;;;;4958726;28;20420;-24
2023/08/19 06:16:48;;;;;;;4.40;2.70;;;26.10;92.90;;;;;;4987630;28;20061;-29
2023/08/19 06:19:14;;;;;;;3.25;2.60;;;26.20;92.90;;;;;;4971878;28;20391;-26
2023/08/19 06:21:41;;;;;;;3.80;2.60;;;26.20;92.90;;;;;;4950283;28;20030;-26
2023/08/19 06:24:07;;;;;;;3.93;2.83;;;26.30;92.90;;;;;;4950488;28;20038;-27
2023/08/19 06:26:33;;;;;;;3.60;2.83;;;26.30;92.80;;;;;;4956881;28;20061;-27
2023/08/19 06:28:58;;;;;;;4.30;2.58;;;26.40;92.80;;;;;;4964022;28;20042;-28
2023/08/19 06:31:24;;;;;;;5.53;2.70;;;26.40;92.80;;;;;;4969406;28;20259;-24
2023/08/19 06:33:51;;;;;;;3.50;2.80;;;26.40;92.70;;;;;;4972157;28;20625;-26
2023/08/19 06:36:22;;;;;;;3.70;2.55;;;26.40;92.70;;;;;;4951500;28;20034;-22
2023/08/19 06:38:58;;;;;;;3.80;2.70;;;26.50;92.70;;;;;;4971477;28;20223;-20
2023/08/19 06:41:24;;;;;;;3.60;2.60;;;26.50;92.70;;;;;;4946343;28;20120;-19
2023/08/19 06:43:52;;;;;;;3.30;2.50;;;26.50;92.70;;;;;;4961796;28;20085;-20
2023/08/19 06:46:19;;;;;;;4.00;3.00;;;26.60;92.70;;;;;;4967186;28;20042;-20
2023/08/19 06:48:45;;;;;;;3.25;2.80;;;26.60;92.70;;;;;;4974204;28;20653;-21
2023/08/19 06:51:11;;;;;;;4.10;2.92;;;26.70;92.70;;;;;;4959838;28;20153;-23
2023/08/19 06:53:37;;;;;;;3.70;2.73;;;26.70;92.60;;;;;;4970705;28;20109;-25
2023/08/19 06:56:35;;;;;;;2.95;2.45;;;26.80;92.60;;;;;;4950302;28;20414;-22
2023/08/19 06:59:16;;;;;;;3.42;2.60;;;26.80;92.50;;;;;;4954383;28;20072;-23
2023/08/19 07:01:49;;;;;;;3.88;2.90;;;26.80;92.90;;;;;;4971804;28;20046;-19
2023/08/19 07:04:20;;;;;;;3.35;2.83;;;26.90;92.60;;;;;;4953163;28;20029;-22
2023/08/19 07:06:47;;;;;;;3.00;2.60;;;26.90;92.60;;;;;;4960235;28;20057;-20
2023/08/19 07:09:14;;;;;;;3.80;2.80;;;28.10;93.00;;;;;;4934042;28;20027;-22
2023/08/19 07:11:40;;;;;;;3.72;2.80;;;27.00;92.70;;;;;;4948046;28;20038;-20
2023/08/19 07:14:06;;;;;;;4.18;2.80;;;27.10;92.70;;;;;;4948760;28;20030;-25
2023/08/19 07:16:33;;;;;;;4.20;3.00;;;27.20;92.80;;;;;;4969390;28;20030;-19
2023/08/19 07:19:03;;;;;;;3.03;2.70;;;27.20;92.60;;;;;;4966350;28;20042;-24
2023/08/19 07:21:32;;;;;;;4.00;2.90;;;27.30;92.50;;;;;;4959721;28;23034;-21
2023/08/19 07:23:59;;;;;;;4.15;3.10;;;27.40;92.40;;;;;;4970556;28;20045;-24
2023/08/19 07:26:26;;;;;;;4.28;2.90;;;27.40;92.30;;;;;;4945163;28;20124;-22
2023/08/19 07:28:52;;;;;;;4.35;3.00;;;27.40;92.30;;;;;;4972065;28;20125;-21
2023/08/19 07:31:22;;;;;;;3.87;2.80;;;27.40;92.30;;;;;;4931536;28;20026;-20
2023/08/19 07:33:48;;;;;;;3.75;2.97;;;27.40;92.30;;;;;;4985843;28;20026;-19
2023/08/19 07:36:14;;;;;;;4.63;3.10;;;27.50;92.30;;;;;;4961701;28;20034;-23
2023/08/19 07:38:40;;;;;;;4.65;3.17;;;27.50;92.30;;;;;;4961139;28;20775;-20
2023/08/19 07:41:05;;;;;;;4.77;3.00;;;27.60;92.30;;;;;;4983609;28;20362;-22
2023/08/19 07:43:32;;;;;;;4.15;2.90;;;27.60;92.30;;;;;;4946479;28;20684;-19
2023/08/19 07:45:59;;;;;;;4.95;3.22;;;27.70;92.40;;;;;;4961957;28;20078;-24
2023/08/19 07:48:25;;;;;;;3.65;3.03;;;27.70;92.40;;;;;;4972279;28;20302;-27
2023/08/19 07:50:51;;;;;;;3.70;3.10;;;27.80;92.40;;;;;;4962924;28;20027;-26
2023/08/19 07:53:16;;;;;;;3.50;3.17;;;27.80;92.40;;;;;;4958342;28;20281;-27
2023/08/19 07:55:43;;;;;;;6.10;3.28;;;27.90;92.30;;;;;;4953919;28;20038;-24
2023/08/19 07:58:09;;;;;;;4.57;3.20;;;27.90;92.30;;;;;;4949070;28;20299;-28
2023/08/19 08:00:35;;;;;;;3.90;3.30;;;27.90;92.30;;;;;;4976446;28;20034;-28
2023/08/19 08:03:01;;;;;;;3.78;3.00;;;28.00;92.30;;;;;;4960192;28;20046;-27
2023/08/19 08:05:27;;;;;;;5.13;3.50;;;28.00;92.30;;;;;;4952820;28;20030;-27
2023/08/19 08:07:53;;;;;;;3.93;3.47;;;28.10;92.30;;;;;;4931115;28;20022;-25
2023/08/19 08:10:19;;;;;;;3.67;3.30;;;28.10;92.20;;;;;;4972054;28;20118;-25
2023/08/19 08:12:45;;;;;;;5.57;3.50;;;28.20;92.40;;;;;;4962875;28;20033;-24
2023/08/19 08:15:12;;;;;;;4.60;3.40;;;28.30;92.40;;;;;;4955943;28;20132;-26
2023/08/19 08:17:38;;;;;;;4.78;3.33;;;28.30;92.30;;;;;;4974426;28;20061;-29
2023/08/19 08:20:04;;;;;;;4.32;3.53;;;28.40;92.30;;;;;;4968895;28;20622;-27
2023/08/19 08:22:32;;;;;;;3.95;3.35;;;28.40;92.20;;;;;;4967307;28;20042;-30
2023/08/19 08:24:58;;;;;;;4.67;3.30;;;28.50;92.10;;;;;;4958142;28;20053;-25
2023/08/19 08:27:25;;;;;;;3.83;3.33;;;28.50;92.00;;;;;;4973194;28;20038;-27
2023/08/19 08:29:51;;;;;;;3.70;3.13;;;28.60;91.90;;;;;;4947174;28;20022;-28
2023/08/19 08:32:17;;;;;;;3.97;3.03;;;28.60;91.80;;;;;;4958026;28;20128;-32
2023/08/19 08:34:43;;;;;;;4.63;3.28;;;28.70;91.90;;;;;;4984378;28;20026;-26
2023/08/19 08:37:08;;;;;;;5.73;3.23;;;28.70;92.10;;;;;;4976615;28;20104;-21
2023/08/19 08:39:34;;;;;;;3.33;2.88;;;28.80;92.40;;;;;;4972330;28;20069;-22
2023/08/19 08:42:02;;;;;;;4.10;3.28;;;28.90;92.80;;;;;;4967831;28;20132;-22
2023/08/19 08:44:29;;;;;;;4.43;3.50;;;29.20;93.10;;;;;;4959116;28;20169;-23
2023/08/19 08:46:56;;;;;;;4.53;3.20;;;29.50;94.00;;;;;;4949103;28;20510;-23
2023/08/19 08:49:24;;;;;;;3.60;3.13;;;30.00;94.80;;;;;;4969646;28;20037;-20
2023/08/19 08:51:51;;;;;;;4.20;3.55;;;30.50;94.70;;;;;;4983184;28;20085;-21
2023/08/19 08:54:19;;;;;;;3.83;3.20;;;31.00;94.00;;;;;;4967154;28;20029;-25
2023/08/19 08:56:45;;;;;;;5.10;3.47;;;31.30;92.60;;;;;;4976586;28;20038;-32
2023/08/19 08:59:11;;;;;;;4.28;3.22;;;31.50;91.50;;;;;;4951062;28;20088;-31
2023/08/19 09:01:38;;;;;;;4.67;3.50;;;31.60;90.70;;;;;;4967708;28;20042;-25
2023/08/19 09:04:06;;;;;;;3.33;3.03;;;31.50;90.00;;;;;;4967990;28;20263;-27
2023/08/19 09:06:33;;;;;;;4.70;3.05;;;31.50;89.10;;;;;;4966014;28;20117;-26
2023/08/19 09:09:02;;;;;;;3.75;2.63;;;31.40;88.20;;;;;;4950132;28;20035;-27
2023/08/19 09:11:29;;;;;;;3.15;2.80;;;31.20;87.20;;;;;;4986480;28;20022;-25
2023/08/19 09:14:19;;;;;;;5.20;2.87;;;31.10;87.50;;;;;;4957712;28;20093;-32
2023/08/19 09:16:45;;;;;;;4.93;3.15;;;31.00;86.00;;;;;;4951748;28;20133;-27
2023/08/19 09:19:12;;;;;;;3.15;2.60;;;30.90;88.10;;;;;;4961827;28;20034;-30
2023/08/19 09:21:38;;;;;;;3.30;2.73;;;30.80;88.40;;;;;;4972072;28;20038;-26
2023/08/19 09:24:04;;;;;;;3.20;2.80;;;30.90;88.60;;;;;;4938245;28;20664;-29
2023/08/19 09:26:31;;;;;;;3.33;2.95;;;30.90;88.60;;;;;;4954885;28;20030;-30
2023/08/19 09:28:57;;;;;;;3.25;2.88;;;31.00;88.70;;;;;;4964821;28;20089;-31
2023/08/19 09:31:24;;;;;;;4.32;3.20;;;31.00;89.20;;;;;;4919814;28;20042;-26
2023/08/19 09:33:54;;;;;;;3.30;2.90;;;31.20;89.00;;;;;;4918883;28;20236;-30
2023/08/19 09:36:23;;;;;;;3.63;3.33;;;31.20;87.60;;;;;;4968790;28;20053;-26
2023/08/19 09:38:56;;;;;;;3.78;2.95;;;31.30;86.90;;;;;;4953923;28;20030;-30
2023/08/19 09:41:33;;;;;;;3.53;2.90;;;31.40;86.20;;;;;;4941829;28;20168;-32
2023/08/19 09:43:59;;;;;;;4.15;2.80;;;31.40;85.50;;;;;;4943149;28;20057;-25
2023/08/19 09:46:32;;;;;;;3.93;3.20;;;31.30;85.60;;;;;;4930483;28;20038;-20
2023/08/19 09:48:58;;;;;;;3.92;3.08;;;31.20;83.60;;;;;;4950167;28;20147;-20
2023/08/19 09:51:25;;;;;;;4.38;2.88;;;31.00;84.10;;;;;;4970377;28;20503;-22
2023/08/19 09:53:52;;;;;;;3.40;2.70;;;31.00;83.90;;;;;;4956459;28;20027;-22
2023/08/19 09:56:22;;;;;;;3.85;2.50;;;30.80;83.70;;;;;;4971046;28;20645;-21
2023/08/19 09:58:52;;;;;;;2.63;2.40;;;30.70;83.10;;;;;;4964155;28;20035;-22
2023/08/19 10:01:21;;;;;;;3.80;2.78;;;30.50;83.10;;;;;;4964521;28;20188;-21
2023/08/19 10:03:47;;;;;;;3.42;2.63;;;30.50;83.70;;;;;;4943630;28;20046;-23
2023/08/19 10:06:16;;;;;;;3.67;2.67;;;30.40;83.50;;;;;;4957165;28;20031;-33
2023/08/19 10:08:45;;;;;;;3.00;2.47;;;30.30;83.30;;;;;;4982456;28;20046;-25
2023/08/19 10:11:14;;;;;;;3.07;2.73;;;30.20;83.40;;;;;;4943765;28;20156;-27
2023/08/19 10:13:41;;;;;;;4.03;2.33;;;30.10;83.20;;;;;;4961573;28;20018;-24
2023/08/19 10:16:08;;;;;;;3.22;2.30;;;30.10;83.50;;;;;;4975512;28;20628;-28
2023/08/19 10:18:38;;;;;;;2.50;2.22;;;30.00;83.40;;;;;;4952999;28;20030;-27
2023/08/19 10:21:07;;;;;;;2.97;2.40;;;29.90;83.20;;;;;;4953391;28;20977;-29
2023/08/19 10:23:35;;;;;;;3.23;2.47;;;29.90;83.30;;;;;;4959417;28;20038;-29
2023/08/19 10:26:01;;;;;;;2.92;2.30;;;29.80;83.30;;;;;;4956141;28;20892;-29
2023/08/19 10:28:28;;;;;;;3.60;2.47;;;29.70;83.40;;;;;;4975236;28;20065;-28
2023/08/19 10:31:07;;;;;;;4.07;2.72;;;29.70;83.30;;;;;;4938079;28;20049;-25
2023/08/19 10:33:37;;;;;;;3.63;2.60;;;29.60;82.70;;;;;;4951189;28;20030;-28
2023/08/19 10:36:08;;;;;;;3.17;2.50;;;29.60;83.20;;;;;;4969373;28;20061;-32
2023/08/19 10:38:44;;;;;;;3.00;2.60;;;29.50;83.10;;;;;;4954602;28;20030;-29
2023/08/19 10:41:20;;;;;;;3.42;2.58;;;29.40;82.90;;;;;;4958249;28;20053;-25
2023/08/19 10:44:00;;;;;;;3.75;2.60;;;29.40;83.00;;;;;;4955034;28;20858;-25
2023/08/19 10:46:36;;;;;;;3.60;2.70;;;29.30;83.00;;;;;;4953218;28;22260;-24
2023/08/19 10:49:04;;;;;;;3.67;2.77;;;29.30;83.10;;;;;;4949122;28;20042;-31
2023/08/19 10:51:57;;;;;;;4.65;2.83;;;29.20;83.00;;;;;;4966672;28;20730;-26
2023/08/19 10:54:35;;;;;;;4.65;2.85;;;29.20;82.90;;;;;;4961402;28;20030;-29
2023/08/19 10:57:14;;;;;;;4.38;2.67;;;29.10;82.90;;;;;;4965106;28;20027;-19
2023/08/19 10:59:45;;;;;;;3.50;2.50;;;29.00;82.90;;;;;;4973960;28;20451;-22
2023/08/19 11:02:12;;;;;;;5.00;2.83;;;28.90;83.10;;;;;;4959457;28;20628;-26
2023/08/19 11:04:40;;;;;;;3.42;2.50;;;28.90;83.30;;;;;;4931698;28;20659;-22
2023/08/19 11:07:07;;;;;;;2.88;2.22;;;28.80;83.60;;;;;;4961288;28;20034;-21
2023/08/19 11:09:34;;;;;;;3.55;2.65;;;28.80;83.70;;;;;;4940032;28;20037;-25
2023/08/19 11:11:59;;;;;;;3.00;2.50;;;28.80;84.00;;;;;;4964024;28;20109;-22
2023/08/19 11:14:25;;;;;;;3.00;2.33;;;28.80;84.00;;;;;;4955169;28;20765;-22
2023/08/19 11:16:52;;;;;;;3.00;2.45;;;28.80;84.30;;;;;;4961378;28;20339;-21
2023/08/19 11:19:20;;;;;;;4.03;2.33;;;28.80;84.80;;;;;;4924713;28;20408;-25
2023/08/19 11:21:46;;;;;;;3.30;2.40;;;28.80;85.40;;;;;;4944409;28;20090;-21
2023/08/19 11:24:12;;;;;;;3.10;2.23;;;29.00;86.10;;;;;;4960139;28;20041;-22
2023/08/19 11:26:42;;;;;;;3.53;2.25;;;29.10;86.50;;;;;;4965458;28;20385;-25
2023/08/19 11:29:09;;;;;;;3.63;2.20;;;29.30;86.40;;;;;;4986402;28;20035;-32
2023/08/19 11:31:36;;;;;;;4.20;2.45;;;29.50;86.30;;;;;;4958024;28;20045;-25
2023/08/19 11:34:09;;;;;;;2.83;2.38;;;29.60;85.60;;;;;;4920307;28;20879;-27
2023/08/19 11:36:36;;;;;;;2.27;2.00;;;29.70;84.60;;;;;;4954626;28;20042;-24
2023/08/19 11:39:04;;;;;;;2.70;1.75;;;29.70;84.40;;;;;;4953820;28;20034;-29
2023/08/19 11:41:30;;;;;;;2.25;1.73;;;29.70;83.70;;;;;;4946586;28;20307;-26
2023/08/19 11:43:57;;;;;;;2.97;1.70;;;29.70;83.20;;;;;;4959040;28;20239;-28
2023/08/19 11:46:28;;;;;;;1.83;1.60;;;29.70;83.00;;;;;;4966461;28;20072;-27
2023/08/19 11:48:53;;;;;;;2.60;1.80;;;29.60;82.50;;;;;;4930653;28;20341;-30
2023/08/19 11:51:21;;;;;;;2.22;1.55;;;29.60;82.60;;;;;;4950157;28;20400;-29
2023/08/19 11:53:52;;;;;;;2.58;1.58;;;29.50;82.10;;;;;;4941496;28;20692;-32
2023/08/19 11:56:18;;;;;;;2.25;1.40;;;29.40;81.60;;;;;;4969809;28;20052;-30
2023/08/19 11:58:52;;;;;;;1.70;1.30;;;29.30;81.80;;;;;;4954761;28;20104;-30
2023/08/19 12:01:20;;;;;;;1.80;1.33;;;29.20;81.20;;;;;;4967137;28;20035;-28
2023/08/19 12:03:47;;;;;;;2.63;1.65;;;29.20;81.40;;;;;;4934882;28;20144;-27
2023/08/19 12:06:14;;;;;;;2.97;1.40;;;29.00;81.30;;;;;;4960525;28;20031;-29
2023/08/19 12:08:41;;;;;;;2.60;1.60;;;28.90;81.30;;;;;;4958091;28;20070;-25
2023/08/19 12:11:09;;;;;;;2.15;1.77;;;28.80;81.20;;;;;;4959622;28;20340;-28
2023/08/19 12:13:35;;;;;;;2.28;1.40;;;28.70;81.30;;;;;;4965599;28;20034;-27
2023/08/19 12:16:01;;;;;;;2.55;1.50;;;28.70;81.50;;;;;;4960892;28;20073;-26
2023/08/19 12:18:32;;;;;;;3.13;1.30;;;28.60;81.60;;;;;;4960642;28;20043;-27
2023/08/19 12:20:59;;;;;;;2.00;1.50;;;28.50;81.50;;;;;;4942837;28;20468;-27
2023/08/19 12:23:25;;;;;;;3.33;1.50;;;28.50;81.60;;;;;;4958410;28;20657;-32
2023/08/19 12:25:56;;;;;;;1.98;1.40;;;28.40;81.60;;;;;;4958409;28;20235;-26
2023/08/19 12:28:23;;;;;;;2.42;1.38;;;28.30;81.70;;;;;;4971231;28;20063;-34
2023/08/19 12:30:50;;;;;;;2.83;1.50;;;28.20;81.70;;;;;;4956974;28;20026;-27
2023/08/19 12:33:17;;;;;;;1.77;1.20;;;28.30;81.70;;;;;;4948085;28;20023;-29
2023/08/19 12:35:46;;;;;;;3.83;1.50;;;28.10;81.70;;;;;;4950376;28;20054;-27
2023/08/19 12:38:16;;;;;;;7.38;1.55;;;28.10;81.70;;;;;;4964738;28;20395;-27
2023/08/19 12:40:46;;;;;;;1.70;1.30;;;28.00;81.70;;;;;;4955862;28;20204;-29
2023/08/19 12:43:13;;;;;;;1.97;1.13;;;27.90;81.80;;;;;;4962129;28;20076;-24
2023/08/19 12:45:40;;;;;;;3.00;1.48;;;27.90;81.80;;;;;;4964105;28;20057;-29
2023/08/19 12:48:07;;;;;;;1.77;1.27;;;27.80;82.00;;;;;;4982992;28;20053;-32
2023/08/19 12:50:34;;;;;;;1.40;1.10;;;27.80;82.30;;;;;;4942742;28;20786;-31